This is the latest recevied weather packets stored in our database for station/object VA2DG-13. If no packets are shown the sender has not sent any weather packets the latest 10 day(s).
| Time | Temp. | Humidity | Pressure | Rain* | Wind** | Luminosity | Snow |
|---|---|---|---|---|---|---|---|
| 1778027107 | 16.67° C | 52% | 1003.1 hPa | 0 mm | - | - | - |
| 1778025907 | 16.67° C | 53% | 1002.7 hPa | 0 mm | - | - | - |
| 1778023208 | 17.78° C | 52% | 1001.9 hPa | 0 mm | - | - | - |
| 1778022308 | 18.33° C | 56% | 1001.6 hPa | 0 mm | - | - | - |
| 1778020807 | 18.33° C | 57% | 1001 hPa | 0 mm | - | - | - |
| 1778015108 | 21.11° C | 52% | 999 hPa | 0 mm | - | - | - |
| 1778014807 | 21.11° C | 52% | 998.9 hPa | 0 mm | - | - | - |
| 1778013008 | 21.11° C | 56% | 998.6 hPa | 0 mm | - | - | - |
| 1778011507 | 20° C | 63% | 998.8 hPa | 0.25 mm | - | - | - |
| 1778010608 | 18.33° C | 69% | 998.9 hPa | 0.51 mm | - | - | - |
| 1778009707 | 17.78° C | 68% | 999 hPa | 0.51 mm | - | - | - |
| 1778005807 | 20.56° C | 55% | 998.8 hPa | 0 mm | - | - | - |
| 1778005507 | 20.56° C | 55% | 998.6 hPa | 0 mm | - | - | - |
| 1778002507 | 18.89° C | 60% | 998.5 hPa | 0.25 mm | - | - | - |
| 1778000707 | 19.44° C | 57% | 998.1 hPa | 0.25 mm | - | - | - |
| 1777999808 | 19.44° C | 54% | 998.3 hPa | 0 mm | - | - | - |
| 1777998307 | 19.44° C | 51% | 998.2 hPa | 0 mm | - | - | - |
| 1777996507 | 20° C | 52% | 998.4 hPa | 0 mm | - | - | - |
| 1777995907 | 20° C | 53% | 998.4 hPa | 0 mm | - | - | - |
| 1777995608 | 19.44° C | 53% | 998.4 hPa | 0 mm | - | - | - |
| 1777994706 | 19.44° C | 53% | 998.7 hPa | 0 mm | - | - | - |
| 1777992907 | 18.89° C | 54% | 998.6 hPa | 0 mm | - | - | - |
| 1777991707 | 18.33° C | 54% | 998.8 hPa | 0 mm | - | - | - |
| 1777990807 | 17.78° C | 58% | 998.6 hPa | 0 mm | - | - | - |
| 1777982106 | 14.44° C | 56% | 1000.2 hPa | 0 mm | - | - | - |
* Rain latest hour (hover to see other rain measurements)
** Current wind speed in m/s (hover to see current wind gust speed)